Norwegian Dawn — C6FT7 — position and weather

sailwx.info

Track history (hours):
 
Tides and Currents Weather Stations Pressure Air Temp Water Temp Dewpoint Dewpoint Depression Visibility Wind Speed Wind Dir Waves Ship Positions

Norwegian Dawn

Operator: Norwegian Cruise Line

Last reported at 2019-Jun-16 07:45 UTC. Time now 2019-Jun-16 15:25 UTC.
Position N 36°43' W 074°34'.

Type: Ship. MMSI: 311307000.

Date/timePositionNaut miles runAvg speedWind from/ knotsBaromVisibWave heightAir tempDewpointWater temp
2019-Jun-16 07:45N 36°43' W 074°34'1123.2
2019-Jun-16 07:15N 36°55' W 074°32'722.9
2019-Jun-16 06:57N 37°01' W 074°30'1023.0
2019-Jun-16 06:31N 37°11' W 074°28'3022.4
2019-Jun-16 05:11N 37°41' W 074°21'1122.2
2019-Jun-16 04:41N 37°52' W 074°19'422.1
2019-Jun-16 04:31N 37°55' W 074°18'1122.0
2019-Jun-16 04:00N 38°06' W 074°15'1121.9
2019-Jun-16 03:30N 38°17' W 074°13'1122.2
2019-Jun-16 03:00N 38°28' W 074°13'1121.3
2019-Jun-16 02:30N 38°38' W 074°09'1121.6
2019-Jun-16 02:01N 38°49' W 074°05'1121.6
2019-Jun-16 01:30N 38°59' W 074°03'1121.2
2019-Jun-16 01:00N 39°10' W 074°01'1121.3
2019-Jun-16 00:30N 39°20' W 073°58'1020.9
2019-Jun-16 00:00N 39°31' W 073°56'1020.9
2019-Jun-15 23:30N 39°41' W 073°53'1120.9
2019-Jun-15 23:00N 39°51' W 073°51'1020.8
2019-Jun-15 22:30N 40°02' W 073°50'1020.7
2019-Jun-15 22:00N 40°12' W 073°50'1220.8
2019-Jun-15 21:25N 40°24' W 073°49'510.0
2019-Jun-15 20:58N 40°28' W 073°52'815.1
2019-Jun-15 20:28N 40°32' W 074°01'815.8
2019-Jun-15 19:59N 40°39' W 074°03'4 8.5
2019-Jun-15 19:30N 40°43' W 074°01'3 6.9
2019-Jun-15 19:00N 40°46' W 073°60'0 0.0
2019-Jun-15 18:07N 40°46' W 073°60'0 0.0
2019-Jun-15 17:52N 40°46' W 073°60'0 0.0
2019-Jun-15 17:22N 40°46' W 073°60'0 0.0
2019-Jun-15 16:19N 40°46' W 073°60'0 0.0
2019-Jun-15 15:25N 40°46' W 073°60'0 0.0
2019-Jun-15 14:37N 40°46' W 073°60'0 0.0
2019-Jun-15 12:58N 40°46' W 073°60'0 0.0
2019-Jun-15 11:43N 40°46' W 073°60'0 0.0
2019-Jun-15 09:56N 40°46' W 073°60'0 0.7
2019-Jun-15 09:30N 40°46' W 074°00'3 6.4
2019-Jun-15 09:00N 40°43' W 074°01'612.0
2019-Jun-15 08:30N 40°37' W 074°03'816.8
2019-Jun-15 08:00N 40°30' W 073°57'816.2
2019-Jun-15 07:30N 40°27' W 073°47'816.3
2019-Jun-15 07:00N 40°27' W 073°36'1019.5
2019-Jun-15 06:30N 40°28' W 073°24'1019.8
2019-Jun-15 06:00N 40°29' W 073°11'918.5
2019-Jun-15 05:30N 40°30' W 072°58'4515.9
2019-Jun-15 02:40N 40°39' W 072°00'316.2
2019-Jun-15 02:30N 40°40' W 071°57'1316.0
2019-Jun-15 01:41N 40°47' W 071°42'316.2
2019-Jun-15 01:30N 40°49' W 071°39'1915.0
2019-Jun-15 00:12N 41°05' W 071°24'716.5
2019-Jun-14 23:47N 41°12' W 071°25'516.7
2019-Jun-14 23:30N 41°16' W 071°25'816.4
2019-Jun-14 23:00N 41°25' W 071°24'6 8.4
2019-Jun-14 22:20N 41°29' W 071°20'0 0.0
2019-Jun-14 19:42N 41°29' W 071°20'0 0.0
2019-Jun-14 19:18N 41°29' W 071°20'0 0.0
2019-Jun-14 18:54N 41°29' W 071°20'0 0.0
2019-Jun-14 18:30N 41°29' W 071°20'0 0.0
2019-Jun-14 17:54N 41°29' W 071°20'0 0.0
2019-Jun-14 17:30N 41°29' W 071°20'0 0.0
2019-Jun-14 14:42N 41°29' W 071°20'0 0.1
2019-Jun-14 14:18N 41°29' W 071°20'0 0.2
2019-Jun-14 13:54N 41°29' W 071°20'3 7.6
2019-Jun-14 13:30N 41°27' W 071°22'9512.6
2019-Jun-14 06:00N 41°12' W 069°18'152 7.6 240 / 341009.0 0.0 9.1 9.0 7.6
2019-Jun-13 10:06N 43°38' W 070°13'1811.5
2019-Jun-13 08:30N 43°29' W 069°51'610.9
2019-Jun-13 07:59N 43°28' W 069°44'510.6
2019-Jun-13 07:29N 43°26' W 069°36'711.4
2019-Jun-13 06:50N 43°25' W 069°26'411.2
2019-Jun-13 06:30N 43°25' W 069°21'511.1
2019-Jun-13 06:00N 43°25' W 069°14'611.3
2019-Jun-13 05:30N 43°26' W 069°06'611.0
2019-Jun-13 05:00N 43°27' W 068°59'713.8
2019-Jun-13 04:29N 43°30' W 068°50'713.6
2019-Jun-13 04:00N 43°32' W 068°41'713.8
2019-Jun-13 03:31N 43°35' W 068°33'713.9
2019-Jun-13 03:00N 43°38' W 068°24'713.9
2019-Jun-13 02:30N 43°41' W 068°15'714.7
2019-Jun-13 02:00N 43°44' W 068°06'815.3
2019-Jun-13 01:30N 43°47' W 067°56'714.4
2019-Jun-13 01:00N 43°52' W 067°49'714.4
2019-Jun-13 00:30N 43°59' W 067°47'816.0
2019-Jun-13 00:00N 44°07' W 067°51'816.6
2019-Jun-12 23:30N 44°14' W 067°55'816.2
2019-Jun-12 23:00N 44°18' W 068°05'611.0
2019-Jun-12 22:30N 44°23' W 068°10'0 0.0
2019-Jun-12 10:56N 44°23' W 068°10'512.4
2019-Jun-12 10:31N 44°19' W 068°05'5 9.3
2019-Jun-12 10:00N 44°16' W 067°60'4 8.7
2019-Jun-12 09:30N 44°14' W 067°55'5 9.2
2019-Jun-12 09:00N 44°11' W 067°50'5 9.9
2019-Jun-12 08:30N 44°10' W 067°43'5 9.4
2019-Jun-12 08:00N 44°10' W 067°36'35 1.5
2019-Jun-11 08:09N 44°07' W 066°47'318.9
2019-Jun-11 08:00N 44°04' W 066°46'3320.5
2019-Jun-11 06:23N 43°33' W 066°29'922.5
2019-Jun-11 06:00N 43°26' W 066°24'91456.6
2019-Jun-11 06:00N 43°18' W 066°18'1613.8 180 / 201020.010.8 9.1 9.0 7.6
2019-Jun-11 04:51N 43°09' W 066°00'822.7
2019-Jun-11 04:29N 43°09' W 065°49'10620.6
2019-Jun-10 23:21N 44°08' W 063°48'721.0
2019-Jun-10 23:00N 44°13' W 063°41'1020.5
2019-Jun-10 22:30N 44°20' W 063°30'1019.8
2019-Jun-10 22:00N 44°29' W 063°30'713.6
2019-Jun-10 21:31N 44°36' W 063°32'2 4.4
2019-Jun-10 20:58N 44°38' W 063°34'0 0.0
2019-Jun-10 20:28N 44°38' W 063°34'0 0.0
2019-Jun-10 19:58N 44°38' W 063°34'0 0.0
2019-Jun-10 19:28N 44°38' W 063°34'0 0.0
2019-Jun-10 18:58N 44°38' W 063°34'0 0.0
2019-Jun-10 18:25N 44°38' W 063°34'0 0.0
2019-Jun-10 17:58N 44°38' W 063°34'0 0.0
2019-Jun-10 17:28N 44°38' W 063°34'0 0.0
2019-Jun-10 16:58N 44°38' W 063°34'0 0.0
2019-Jun-10 16:28N 44°38' W 063°34'0 0.0
2019-Jun-10 15:58N 44°38' W 063°34'0 0.0
2019-Jun-10 15:25N 44°38' W 063°34'0 0.0
2019-Jun-10 14:55N 44°38' W 063°34'0 0.0
2019-Jun-10 14:25N 44°38' W 063°34'0 0.0
2019-Jun-10 13:58N 44°38' W 063°34'0 0.0
2019-Jun-10 13:28N 44°38' W 063°34'0 0.0
2019-Jun-10 12:58N 44°38' W 063°34'0 0.0
2019-Jun-10 12:28N 44°38' W 063°34'0 0.0
2019-Jun-10 11:58N 44°38' W 063°34'0 0.0
2019-Jun-10 11:28N 44°38' W 063°34'0 0.7
2019-Jun-10 11:01N 44°38' W 063°34'3 6.5
2019-Jun-10 10:31N 44°35' W 063°32'714.0
2019-Jun-10 10:01N 44°28' W 063°28'917.4
2019-Jun-10 09:30N 44°20' W 063°24'38616.4
2019-Jun-09 09:56N 40°02' W 069°52'716.2
2019-Jun-09 09:31N 40°01' W 070°01'816.8
2019-Jun-09 09:01N 39°58' W 070°11'816.9
2019-Jun-09 08:30N 39°56' W 070°22'2117.5
2019-Jun-09 07:20N 39°50' W 070°48'517.0
2019-Jun-09 07:00N 39°51' W 070°55'1817.8
2019-Jun-09 06:00N 39°48' W 071°18'1416.7 150 / 291009.010.8 19.210.720.1
2019-Jun-09 05:11N 39°55' W 071°33'316.5
2019-Jun-09 05:00N 39°55' W 071°37'1616.0
2019-Jun-09 04:01N 39°58' W 071°57'815.5
2019-Jun-09 03:31N 40°01' W 072°07'815.2
2019-Jun-09 03:01N 40°04' W 072°16'815.3
2019-Jun-09 02:31N 40°07' W 072°25'815.0
2019-Jun-09 02:00N 40°10' W 072°34'715.1
2019-Jun-09 01:30N 40°13' W 072°43'815.2
2019-Jun-09 00:59N 40°16' W 072°53'715.2
2019-Jun-09 00:30N 40°19' W 073°02'715.0
2019-Jun-09 00:00N 40°21' W 073°11'814.8
2019-Jun-08 23:30N 40°22' W 073°21'815.0
2019-Jun-08 22:59N 40°24' W 073°31'715.1
2019-Jun-08 22:31N 40°25' W 073°40'714.8
2019-Jun-08 22:00N 40°26' W 073°50'612.8
2019-Jun-08 21:31N 40°30' W 073°57'918.0
2019-Jun-08 21:01N 40°37' W 074°03'612.1
2019-Jun-08 20:30N 40°43' W 074°01'3 5.8
2019-Jun-08 20:01N 40°46' W 073°60'0 0.0
2019-Jun-08 19:28N 40°46' W 073°60'0 0.0
2019-Jun-08 18:58N 40°46' W 073°60'0 0.0
2019-Jun-08 18:28N 40°46' W 073°60'0 0.0
2019-Jun-08 17:52N 40°46' W 073°60'0 0.0
2019-Jun-08 17:28N 40°46' W 073°60'0 0.0
2019-Jun-08 16:58N 40°46' W 073°60'0 0.0
2019-Jun-08 16:28N 40°46' W 073°60'0 0.0
2019-Jun-08 15:58N 40°46' W 073°60'0 0.0
2019-Jun-08 15:28N 40°46' W 073°60'0 0.0
2019-Jun-08 14:58N 40°46' W 073°60'0 0.0
2019-Jun-08 14:25N 40°46' W 073°60'0 0.0
2019-Jun-08 13:58N 40°46' W 073°60'0 0.0
2019-Jun-08 13:28N 40°46' W 073°60'0 0.0
2019-Jun-08 12:58N 40°46' W 073°60'0 0.0
2019-Jun-08 12:25N 40°46' W 073°60'0 0.0
2019-Jun-08 11:58N 40°46' W 073°60'0 0.0
2019-Jun-08 11:28N 40°46' W 073°60'0 0.0
2019-Jun-08 10:55N 40°46' W 073°60'0 0.0
2019-Jun-08 10:25N 40°46' W 073°60'0 0.0
2019-Jun-08 09:58N 40°46' W 073°60'0 0.0
2019-Jun-08 09:25N 40°46' W 073°60'0 0.0
2019-Jun-08 08:52N 40°46' W 073°60'0 0.0
2019-Jun-08 08:28N 40°46' W 073°60'0 0.0
2019-Jun-08 07:58N 40°46' W 073°60'0 0.6
2019-Jun-08 07:28N 40°46' W 074°00'3 7.0
2019-Jun-08 07:00N 40°43' W 074°01'713.9
2019-Jun-08 06:30N 40°36' W 074°02'816.9
2019-Jun-08 06:00N 40°29' W 073°55'713.8
2019-Jun-08 05:30N 40°27' W 073°47'713.9
2019-Jun-08 05:00N 40°27' W 073°38'1019.7
2019-Jun-08 04:30N 40°29' W 073°25'1019.8
2019-Jun-08 04:00N 40°29' W 073°12'1121.4
2019-Jun-08 03:30N 40°30' W 072°58'1223.1
2019-Jun-08 03:00N 40°31' W 072°43'1223.2
2019-Jun-08 02:30N 40°33' W 072°28'1223.4
2019-Jun-08 02:00N 40°36' W 072°13'1223.2
2019-Jun-08 01:30N 40°41' W 071°59'1123.0
2019-Jun-08 01:00N 40°48' W 071°47'1020.0
2019-Jun-08 00:30N 40°52' W 071°35'1121.6
2019-Jun-08 00:00N 41°01' W 071°26'1122.8
2019-Jun-07 23:30N 41°12' W 071°25'1122.0
2019-Jun-07 23:00N 41°23' W 071°25'7 9.8
2019-Jun-07 22:15N 41°29' W 071°20'0 0.0
2019-Jun-07 21:57N 41°29' W 071°20'0 0.0
2019-Jun-07 21:21N 41°29' W 071°20'0 0.0
2019-Jun-07 20:15N 41°29' W 071°20'2 0.3
2019-Jun-07 13:50N 41°28' W 071°22'1415.7
2019-Jun-07 12:57N 41°14' W 071°21'10417.4
2019-Jun-07 07:00N 40°54' W 069°06'   110 / 171009.0 5.4 11.0 9.310.2
Track history (hours):
 
Tides and Currents Weather Stations Pressure Air Temp Water Temp Dewpoint Dewpoint Depression Visibility Wind Speed Wind Dir Waves Ship Positions

Norwegian Dawn

Operator: Norwegian Cruise Line

Last reported at 2019-Jun-16 07:45 UTC. Time now 2019-Jun-16 15:25 UTC.
Position N 36°43' W 074°34'.

Type: Ship. MMSI: 311307000.

Date/timePositionNaut miles runAvg speedWind from/ knotsBaromVisibWave heightAir tempDewpointWater temp
2019-Jun-16 07:45N 36°43' W 074°34'1123.2
2019-Jun-16 07:15N 36°55' W 074°32'722.9
2019-Jun-16 06:57N 37°01' W 074°30'1023.0
2019-Jun-16 06:31N 37°11' W 074°28'3022.4
2019-Jun-16 05:11N 37°41' W 074°21'1122.2
2019-Jun-16 04:41N 37°52' W 074°19'422.1
2019-Jun-16 04:31N 37°55' W 074°18'1122.0
2019-Jun-16 04:00N 38°06' W 074°15'1121.9
2019-Jun-16 03:30N 38°17' W 074°13'1122.2
2019-Jun-16 03:00N 38°28' W 074°13'1121.3
2019-Jun-16 02:30N 38°38' W 074°09'1121.6
2019-Jun-16 02:01N 38°49' W 074°05'1121.6
2019-Jun-16 01:30N 38°59' W 074°03'1121.2
2019-Jun-16 01:00N 39°10' W 074°01'1121.3
2019-Jun-16 00:30N 39°20' W 073°58'1020.9
2019-Jun-16 00:00N 39°31' W 073°56'1020.9
2019-Jun-15 23:30N 39°41' W 073°53'1120.9
2019-Jun-15 23:00N 39°51' W 073°51'1020.8
2019-Jun-15 22:30N 40°02' W 073°50'1020.7
2019-Jun-15 22:00N 40°12' W 073°50'1220.8
2019-Jun-15 21:25N 40°24' W 073°49'510.0
2019-Jun-15 20:58N 40°28' W 073°52'815.1
2019-Jun-15 20:28N 40°32' W 074°01'815.8
2019-Jun-15 19:59N 40°39' W 074°03'4 8.5
2019-Jun-15 19:30N 40°43' W 074°01'3 6.9
2019-Jun-15 19:00N 40°46' W 073°60'0 0.0
2019-Jun-15 18:07N 40°46' W 073°60'0 0.0
2019-Jun-15 17:52N 40°46' W 073°60'0 0.0
2019-Jun-15 17:22N 40°46' W 073°60'0 0.0
2019-Jun-15 16:19N 40°46' W 073°60'0 0.0
2019-Jun-15 15:25N 40°46' W 073°60'0 0.0
2019-Jun-15 14:37N 40°46' W 073°60'0 0.0
2019-Jun-15 12:58N 40°46' W 073°60'0 0.0
2019-Jun-15 11:43N 40°46' W 073°60'0 0.0
2019-Jun-15 09:56N 40°46' W 073°60'0 0.7
2019-Jun-15 09:30N 40°46' W 074°00'3 6.4
2019-Jun-15 09:00N 40°43' W 074°01'612.0
2019-Jun-15 08:30N 40°37' W 074°03'816.8
2019-Jun-15 08:00N 40°30' W 073°57'816.2
2019-Jun-15 07:30N 40°27' W 073°47'816.3
2019-Jun-15 07:00N 40°27' W 073°36'1019.5
2019-Jun-15 06:30N 40°28' W 073°24'1019.8
2019-Jun-15 06:00N 40°29' W 073°11'918.5
2019-Jun-15 05:30N 40°30' W 072°58'4515.9
2019-Jun-15 02:40N 40°39' W 072°00'316.2
2019-Jun-15 02:30N 40°40' W 071°57'1316.0
2019-Jun-15 01:41N 40°47' W 071°42'316.2
2019-Jun-15 01:30N 40°49' W 071°39'1915.0
2019-Jun-15 00:12N 41°05' W 071°24'716.5
2019-Jun-14 23:47N 41°12' W 071°25'516.7
2019-Jun-14 23:30N 41°16' W 071°25'816.4
2019-Jun-14 23:00N 41°25' W 071°24'6 8.4
2019-Jun-14 22:20N 41°29' W 071°20'0 0.0
2019-Jun-14 19:42N 41°29' W 071°20'0 0.0
2019-Jun-14 19:18N 41°29' W 071°20'0 0.0
2019-Jun-14 18:54N 41°29' W 071°20'0 0.0
2019-Jun-14 18:30N 41°29' W 071°20'0 0.0
2019-Jun-14 17:54N 41°29' W 071°20'0 0.0
2019-Jun-14 17:30N 41°29' W 071°20'0 0.0
2019-Jun-14 14:42N 41°29' W 071°20'0 0.1
2019-Jun-14 14:18N 41°29' W 071°20'0 0.2
2019-Jun-14 13:54N 41°29' W 071°20'3 7.6
2019-Jun-14 13:30N 41°27' W 071°22'9512.6
2019-Jun-14 06:00N 41°12' W 069°18'152 7.6 240 / 341009.0 0.0 9.1 9.0 7.6
2019-Jun-13 10:06N 43°38' W 070°13'1811.5
2019-Jun-13 08:30N 43°29' W 069°51'610.9
2019-Jun-13 07:59N 43°28' W 069°44'510.6
2019-Jun-13 07:29N 43°26' W 069°36'711.4
2019-Jun-13 06:50N 43°25' W 069°26'411.2
2019-Jun-13 06:30N 43°25' W 069°21'511.1
2019-Jun-13 06:00N 43°25' W 069°14'611.3
2019-Jun-13 05:30N 43°26' W 069°06'611.0
2019-Jun-13 05:00N 43°27' W 068°59'713.8
2019-Jun-13 04:29N 43°30' W 068°50'713.6
2019-Jun-13 04:00N 43°32' W 068°41'713.8
2019-Jun-13 03:31N 43°35' W 068°33'713.9
2019-Jun-13 03:00N 43°38' W 068°24'713.9
2019-Jun-13 02:30N 43°41' W 068°15'714.7
2019-Jun-13 02:00N 43°44' W 068°06'815.3
2019-Jun-13 01:30N 43°47' W 067°56'714.4
2019-Jun-13 01:00N 43°52' W 067°49'714.4
2019-Jun-13 00:30N 43°59' W 067°47'816.0
2019-Jun-13 00:00N 44°07' W 067°51'816.6
2019-Jun-12 23:30N 44°14' W 067°55'816.2
2019-Jun-12 23:00N 44°18' W 068°05'611.0
2019-Jun-12 22:30N 44°23' W 068°10'0 0.0
2019-Jun-12 10:56N 44°23' W 068°10'512.4
2019-Jun-12 10:31N 44°19' W 068°05'5 9.3
2019-Jun-12 10:00N 44°16' W 067°60'4 8.7
2019-Jun-12 09:30N 44°14' W 067°55'5 9.2
2019-Jun-12 09:00N 44°11' W 067°50'5 9.9
2019-Jun-12 08:30N 44°10' W 067°43'5 9.4
2019-Jun-12 08:00N 44°10' W 067°36'35 1.5
2019-Jun-11 08:09N 44°07' W 066°47'318.9
2019-Jun-11 08:00N 44°04' W 066°46'3320.5
2019-Jun-11 06:23N 43°33' W 066°29'922.5
2019-Jun-11 06:00N 43°26' W 066°24'91456.6
2019-Jun-11 06:00N 43°18' W 066°18'1613.8 180 / 201020.010.8 9.1 9.0 7.6
2019-Jun-11 04:51N 43°09' W 066°00'822.7
2019-Jun-11 04:29N 43°09' W 065°49'10620.6
2019-Jun-10 23:21N 44°08' W 063°48'721.0
2019-Jun-10 23:00N 44°13' W 063°41'1020.5
2019-Jun-10 22:30N 44°20' W 063°30'1019.8
2019-Jun-10 22:00N 44°29' W 063°30'713.6
2019-Jun-10 21:31N 44°36' W 063°32'2 4.4
2019-Jun-10 20:58N 44°38' W 063°34'0 0.0
2019-Jun-10 20:28N 44°38' W 063°34'0 0.0
2019-Jun-10 19:58N 44°38' W 063°34'0 0.0
2019-Jun-10 19:28N 44°38' W 063°34'0 0.0
2019-Jun-10 18:58N 44°38' W 063°34'0 0.0
2019-Jun-10 18:25N 44°38' W 063°34'0 0.0
2019-Jun-10 17:58N 44°38' W 063°34'0 0.0
2019-Jun-10 17:28N 44°38' W 063°34'0 0.0
2019-Jun-10 16:58N 44°38' W 063°34'0 0.0
2019-Jun-10 16:28N 44°38' W 063°34'0 0.0
2019-Jun-10 15:58N 44°38' W 063°34'0 0.0
2019-Jun-10 15:25N 44°38' W 063°34'0 0.0
2019-Jun-10 14:55N 44°38' W 063°34'0 0.0
2019-Jun-10 14:25N 44°38' W 063°34'0 0.0
2019-Jun-10 13:58N 44°38' W 063°34'0 0.0
2019-Jun-10 13:28N 44°38' W 063°34'0 0.0
2019-Jun-10 12:58N 44°38' W 063°34'0 0.0
2019-Jun-10 12:28N 44°38' W 063°34'0 0.0
2019-Jun-10 11:58N 44°38' W 063°34'0 0.0
2019-Jun-10 11:28N 44°38' W 063°34'0 0.7
2019-Jun-10 11:01N 44°38' W 063°34'3 6.5
2019-Jun-10 10:31N 44°35' W 063°32'714.0
2019-Jun-10 10:01N 44°28' W 063°28'917.4
2019-Jun-10 09:30N 44°20' W 063°24'38616.4
2019-Jun-09 09:56N 40°02' W 069°52'716.2
2019-Jun-09 09:31N 40°01' W 070°01'816.8
2019-Jun-09 09:01N 39°58' W 070°11'816.9
2019-Jun-09 08:30N 39°56' W 070°22'2117.5
2019-Jun-09 07:20N 39°50' W 070°48'517.0
2019-Jun-09 07:00N 39°51' W 070°55'1817.8
2019-Jun-09 06:00N 39°48' W 071°18'1416.7 150 / 291009.010.8 19.210.720.1
2019-Jun-09 05:11N 39°55' W 071°33'316.5
2019-Jun-09 05:00N 39°55' W 071°37'1616.0
2019-Jun-09 04:01N 39°58' W 071°57'815.5
2019-Jun-09 03:31N 40°01' W 072°07'815.2
2019-Jun-09 03:01N 40°04' W 072°16'815.3
2019-Jun-09 02:31N 40°07' W 072°25'815.0
2019-Jun-09 02:00N 40°10' W 072°34'715.1
2019-Jun-09 01:30N 40°13' W 072°43'815.2
2019-Jun-09 00:59N 40°16' W 072°53'715.2
2019-Jun-09 00:30N 40°19' W 073°02'715.0
2019-Jun-09 00:00N 40°21' W 073°11'814.8
2019-Jun-08 23:30N 40°22' W 073°21'815.0
2019-Jun-08 22:59N 40°24' W 073°31'715.1
2019-Jun-08 22:31N 40°25' W 073°40'714.8
2019-Jun-08 22:00N 40°26' W 073°50'612.8
2019-Jun-08 21:31N 40°30' W 073°57'918.0
2019-Jun-08 21:01N 40°37' W 074°03'612.1
2019-Jun-08 20:30N 40°43' W 074°01'3 5.8
2019-Jun-08 20:01N 40°46' W 073°60'0 0.0
2019-Jun-08 19:28N 40°46' W 073°60'0 0.0
2019-Jun-08 18:58N 40°46' W 073°60'0 0.0
2019-Jun-08 18:28N 40°46' W 073°60'0 0.0
2019-Jun-08 17:52N 40°46' W 073°60'0 0.0
2019-Jun-08 17:28N 40°46' W 073°60'0 0.0
2019-Jun-08 16:58N 40°46' W 073°60'0 0.0
2019-Jun-08 16:28N 40°46' W 073°60'0 0.0
2019-Jun-08 15:58N 40°46' W 073°60'0 0.0
2019-Jun-08 15:28N 40°46' W 073°60'0 0.0
2019-Jun-08 14:58N 40°46' W 073°60'0 0.0
2019-Jun-08 14:25N 40°46' W 073°60'0 0.0
2019-Jun-08 13:58N 40°46' W 073°60'0 0.0
2019-Jun-08 13:28N 40°46' W 073°60'0 0.0
2019-Jun-08 12:58N 40°46' W 073°60'0 0.0
2019-Jun-08 12:25N 40°46' W 073°60'0 0.0
2019-Jun-08 11:58N 40°46' W 073°60'0 0.0
2019-Jun-08 11:28N 40°46' W 073°60'0 0.0
2019-Jun-08 10:55N 40°46' W 073°60'0 0.0
2019-Jun-08 10:25N 40°46' W 073°60'0 0.0
2019-Jun-08 09:58N 40°46' W 073°60'0 0.0
2019-Jun-08 09:25N 40°46' W 073°60'0 0.0
2019-Jun-08 08:52N 40°46' W 073°60'0 0.0
2019-Jun-08 08:28N 40°46' W 073°60'0 0.0
2019-Jun-08 07:58N 40°46' W 073°60'0 0.6
2019-Jun-08 07:28N 40°46' W 074°00'3 7.0
2019-Jun-08 07:00N 40°43' W 074°01'713.9
2019-Jun-08 06:30N 40°36' W 074°02'816.9
2019-Jun-08 06:00N 40°29' W 073°55'713.8
2019-Jun-08 05:30N 40°27' W 073°47'713.9
2019-Jun-08 05:00N 40°27' W 073°38'1019.7
2019-Jun-08 04:30N 40°29' W 073°25'1019.8
2019-Jun-08 04:00N 40°29' W 073°12'1121.4
2019-Jun-08 03:30N 40°30' W 072°58'1223.1
2019-Jun-08 03:00N 40°31' W 072°43'1223.2
2019-Jun-08 02:30N 40°33' W 072°28'1223.4
2019-Jun-08 02:00N 40°36' W 072°13'1223.2
2019-Jun-08 01:30N 40°41' W 071°59'1123.0
2019-Jun-08 01:00N 40°48' W 071°47'1020.0
2019-Jun-08 00:30N 40°52' W 071°35'1121.6
2019-Jun-08 00:00N 41°01' W 071°26'1122.8
2019-Jun-07 23:30N 41°12' W 071°25'1122.0
2019-Jun-07 23:00N 41°23' W 071°25'7 9.8
2019-Jun-07 22:15N 41°29' W 071°20'0 0.0
2019-Jun-07 21:57N 41°29' W 071°20'0 0.0
2019-Jun-07 21:21N 41°29' W 071°20'0 0.0
2019-Jun-07 20:15N 41°29' W 071°20'2 0.3
2019-Jun-07 13:50N 41°28' W 071°22'1415.7
2019-Jun-07 12:57N 41°14' W 071°21'10417.4
2019-Jun-07 07:00N 40°54' W 069°06'   110 / 171009.0 5.4 11.0 9.310.2

Dump ship's entire track history